sensor_id;sensor_type;location;lat;lon;timestamp;P1;durP1;ratioP1;P2;durP2;ratioP2
51913;SDS011;37940;53.002;6.930;2023-03-31T00:01:29;1560.75;;;709.85;;
51913;SDS011;37940;53.002;6.930;2023-03-31T00:03:58;1548.25;;;718.85;;
51913;SDS011;37940;53.002;6.930;2023-03-31T00:06:30;1541.90;;;709.40;;
51913;SDS011;37940;53.002;6.930;2023-03-31T00:09:05;1482.65;;;725.28;;
51913;SDS011;37940;53.002;6.930;2023-03-31T00:11:33;1480.43;;;727.63;;
51913;SDS011;37940;53.002;6.930;2023-03-31T00:13:59;1577.60;;;700.20;;
51913;SDS011;37940;53.002;6.930;2023-03-31T00:16:25;1572.68;;;706.88;;
51913;SDS011;37940;53.002;6.930;2023-03-31T00:18:51;1562.40;;;710.63;;
51913;SDS011;37940;53.002;6.930;2023-03-31T00:21:21;1577.70;;;714.50;;
51913;SDS011;37940;53.002;6.930;2023-03-31T00:24:07;1587.32;;;709.70;;
51913;SDS011;37940;53.002;6.930;2023-03-31T00:26:34;1589.85;;;700.67;;
51913;SDS011;37940;53.002;6.930;2023-03-31T00:29:01;1612.00;;;693.72;;
51913;SDS011;37940;53.002;6.930;2023-03-31T00:31:28;1551.05;;;712.70;;
51913;SDS011;37940;53.002;6.930;2023-03-31T00:33:54;1544.20;;;715.70;;
51913;SDS011;37940;53.002;6.930;2023-03-31T00:36:21;1539.75;;;710.95;;
51913;SDS011;37940;53.002;6.930;2023-03-31T00:38:52;1526.97;;;712.97;;
51913;SDS011;37940;53.002;6.930;2023-03-31T00:41:24;1530.97;;;720.70;;
51913;SDS011;37940;53.002;6.930;2023-03-31T00:46:49;1588.88;;;691.50;;
51913;SDS011;37940;53.002;6.930;2023-03-31T00:49:22;1568.72;;;699.83;;
51913;SDS011;37940;53.002;6.930;2023-03-31T00:54:33;1590.30;;;687.50;;
51913;SDS011;37940;53.002;6.930;2023-03-31T00:57:00;1637.90;;;679.55;;
51913;SDS011;37940;53.002;6.930;2023-03-31T00:59:31;1596.90;;;693.90;;
51913;SDS011;37940;53.002;6.930;2023-03-31T01:02:07;1491.90;;;670.20;;
51913;SDS011;37940;53.002;6.930;2023-03-31T01:04:34;1630.68;;;683.92;;
51913;SDS011;37940;53.002;6.930;2023-03-31T01:07:14;1576.05;;;700.33;;
51913;SDS011;37940;53.002;6.930;2023-03-31T01:09:47;1555.25;;;700.45;;
51913;SDS011;37940;53.002;6.930;2023-03-31T01:12:15;1537.68;;;704.28;;
51913;SDS011;37940;53.002;6.930;2023-03-31T01:14:43;1520.88;;;712.25;;
51913;SDS011;37940;53.002;6.930;2023-03-31T01:17:08;1447.75;;;725.70;;
51913;SDS011;37940;53.002;6.930;2023-03-31T01:20:00;1524.72;;;708.42;;
51913;SDS011;37940;53.002;6.930;2023-03-31T01:28:45;1506.53;;;711.00;;
51913;SDS011;37940;53.002;6.930;2023-03-31T01:45:40;1470.75;;;709.78;;
51913;SDS011;37940;53.002;6.930;2023-03-31T01:48:19;1546.05;;;693.55;;
51913;SDS011;37940;53.002;6.930;2023-03-31T01:50:57;1629.57;;;658.73;;
51913;SDS011;37940;53.002;6.930;2023-03-31T01:56:06;1560.72;;;683.00;;
51913;SDS011;37940;53.002;6.930;2023-03-31T01:58:38;1564.50;;;686.58;;
51913;SDS011;37940;53.002;6.930;2023-03-31T02:03:57;1575.93;;;682.55;;
51913;SDS011;37940;53.002;6.930;2023-03-31T02:06:33;1584.55;;;684.25;;
51913;SDS011;37940;53.002;6.930;2023-03-31T02:09:09;1579.85;;;688.30;;
51913;SDS011;37940;53.002;6.930;2023-03-31T02:11:39;1578.78;;;680.17;;
51913;SDS011;37940;53.002;6.930;2023-03-31T02:14:08;1587.65;;;680.33;;
51913;SDS011;37940;53.002;6.930;2023-03-31T02:16:37;1568.38;;;685.00;;
51913;SDS011;37940;53.002;6.930;2023-03-31T02:19:11;1588.15;;;682.42;;
51913;SDS011;37940;53.002;6.930;2023-03-31T02:21:42;1587.15;;;678.90;;
51913;SDS011;37940;53.002;6.930;2023-03-31T02:24:12;1594.78;;;682.00;;
51913;SDS011;37940;53.002;6.930;2023-03-31T02:26:44;1597.10;;;671.00;;
51913;SDS011;37940;53.002;6.930;2023-03-31T02:29:32;1587.75;;;673.97;;
51913;SDS011;37940;53.002;6.930;2023-03-31T02:32:08;1547.13;;;692.72;;
51913;SDS011;37940;53.002;6.930;2023-03-31T02:34:56;1527.15;;;695.53;;
51913;SDS011;37940;53.002;6.930;2023-03-31T02:37:23;1517.28;;;691.67;;
51913;SDS011;37940;53.002;6.930;2023-03-31T02:39:51;1549.72;;;690.30;;
51913;SDS011;37940;53.002;6.930;2023-03-31T02:42:18;1551.85;;;678.13;;
51913;SDS011;37940;53.002;6.930;2023-03-31T02:44:45;1539.28;;;683.67;;
51913;SDS011;37940;53.002;6.930;2023-03-31T02:47:11;1556.35;;;678.63;;
51913;SDS011;37940;53.002;6.930;2023-03-31T02:49:40;1548.40;;;681.55;;
51913;SDS011;37940;53.002;6.930;2023-03-31T02:52:25;1572.10;;;668.17;;
51913;SDS011;37940;53.002;6.930;2023-03-31T03:05:17;1530.80;;;682.63;;
51913;SDS011;37940;53.002;6.930;2023-03-31T03:13:59;1416.40;;;707.13;;
51913;SDS011;37940;53.002;6.930;2023-03-31T03:16:43;1419.00;;;706.95;;
51913;SDS011;37940;53.002;6.930;2023-03-31T03:19:17;1398.72;;;708.42;;
51913;SDS011;37940;53.002;6.930;2023-03-31T03:21:45;1365.63;;;709.67;;
51913;SDS011;37940;53.002;6.930;2023-03-31T03:24:12;1388.45;;;711.83;;
51913;SDS011;37940;53.002;6.930;2023-03-31T03:26:42;1516.38;;;685.97;;
51913;SDS011;37940;53.002;6.930;2023-03-31T03:29:09;1521.78;;;691.28;;
51913;SDS011;37940;53.002;6.930;2023-03-31T03:31:39;1530.68;;;687.38;;
51913;SDS011;37940;53.002;6.930;2023-03-31T03:34:06;1492.93;;;698.33;;
51913;SDS011;37940;53.002;6.930;2023-03-31T03:36:33;1494.28;;;695.47;;
51913;SDS011;37940;53.002;6.930;2023-03-31T03:39:01;1448.38;;;702.67;;
51913;SDS011;37940;53.002;6.930;2023-03-31T03:41:28;1374.53;;;717.72;;
51913;SDS011;37940;53.002;6.930;2023-03-31T03:43:54;1408.72;;;709.35;;
51913;SDS011;37940;53.002;6.930;2023-03-31T03:46:19;1426.63;;;700.65;;
51913;SDS011;37940;53.002;6.930;2023-03-31T03:48:45;1393.45;;;703.55;;
51913;SDS011;37940;53.002;6.930;2023-03-31T03:51:11;1426.90;;;700.90;;
51913;SDS011;37940;53.002;6.930;2023-03-31T03:53:36;1440.57;;;701.28;;
51913;SDS011;37940;53.002;6.930;2023-03-31T03:56:02;1419.63;;;705.22;;
51913;SDS011;37940;53.002;6.930;2023-03-31T03:58:28;1387.55;;;707.67;;
51913;SDS011;37940;53.002;6.930;2023-03-31T04:00:53;1417.18;;;711.15;;
51913;SDS011;37940;53.002;6.930;2023-03-31T04:03:21;1430.95;;;703.17;;
51913;SDS011;37940;53.002;6.930;2023-03-31T04:05:46;1488.97;;;688.95;;
51913;SDS011;37940;53.002;6.930;2023-03-31T04:08:15;1490.38;;;695.25;;
51913;SDS011;37940;53.002;6.930;2023-03-31T04:10:43;1505.57;;;698.08;;
51913;SDS011;37940;53.002;6.930;2023-03-31T04:13:10;1473.15;;;703.38;;
51913;SDS011;37940;53.002;6.930;2023-03-31T04:15:36;1478.60;;;704.95;;
51913;SDS011;37940;53.002;6.930;2023-03-31T04:18:01;1505.82;;;686.03;;
51913;SDS011;37940;53.002;6.930;2023-03-31T04:20:27;1505.90;;;690.50;;
51913;SDS011;37940;53.002;6.930;2023-03-31T04:22:54;1558.72;;;674.67;;
51913;SDS011;37940;53.002;6.930;2023-03-31T04:25:20;1521.25;;;682.45;;
51913;SDS011;37940;53.002;6.930;2023-03-31T04:27:47;1547.47;;;678.30;;
51913;SDS011;37940;53.002;6.930;2023-03-31T04:30:19;1517.47;;;680.47;;
51913;SDS011;37940;53.002;6.930;2023-03-31T04:32:49;1541.63;;;679.85;;
51913;SDS011;37940;53.002;6.930;2023-03-31T04:35:17;1483.80;;;687.40;;
51913;SDS011;37940;53.002;6.930;2023-03-31T04:37:48;1449.72;;;706.08;;
51913;SDS011;37940;53.002;6.930;2023-03-31T04:40:15;1437.30;;;709.03;;
51913;SDS011;37940;53.002;6.930;2023-03-31T04:42:42;1421.13;;;708.50;;
51913;SDS011;37940;53.002;6.930;2023-03-31T04:45:09;1322.70;;;724.53;;
51913;SDS011;37940;53.002;6.930;2023-03-31T04:47:37;1277.07;;;719.58;;
51913;SDS011;37940;53.002;6.930;2023-03-31T04:50:03;1316.53;;;719.10;;
51913;SDS011;37940;53.002;6.930;2023-03-31T04:52:29;1402.82;;;718.20;;
51913;SDS011;37940;53.002;6.930;2023-03-31T04:54:55;1310.03;;;732.83;;
51913;SDS011;37940;53.002;6.930;2023-03-31T04:57:21;1317.97;;;731.75;;
51913;SDS011;37940;53.002;6.930;2023-03-31T04:59:46;1317.38;;;726.58;;
51913;SDS011;37940;53.002;6.930;2023-03-31T05:02:12;1431.15;;;708.70;;
51913;SDS011;37940;53.002;6.930;2023-03-31T05:04:39;1446.30;;;707.22;;
51913;SDS011;37940;53.002;6.930;2023-03-31T05:07:05;1381.05;;;711.10;;
51913;SDS011;37940;53.002;6.930;2023-03-31T05:09:31;1381.35;;;709.53;;
51913;SDS011;37940;53.002;6.930;2023-03-31T05:11:59;1349.22;;;704.95;;
51913;SDS011;37940;53.002;6.930;2023-03-31T05:14:25;1348.43;;;705.67;;
51913;SDS011;37940;53.002;6.930;2023-03-31T05:16:50;1385.57;;;715.13;;
51913;SDS011;37940;53.002;6.930;2023-03-31T05:19:16;1344.65;;;715.58;;
51913;SDS011;37940;53.002;6.930;2023-03-31T05:21:42;1361.65;;;715.35;;
51913;SDS011;37940;53.002;6.930;2023-03-31T05:24:08;1380.55;;;724.42;;
51913;SDS011;37940;53.002;6.930;2023-03-31T05:26:33;1443.05;;;727.05;;
51913;SDS011;37940;53.002;6.930;2023-03-31T05:28:59;1449.10;;;721.22;;
51913;SDS011;37940;53.002;6.930;2023-03-31T05:31:25;1524.78;;;705.20;;
51913;SDS011;37940;53.002;6.930;2023-03-31T05:33:51;1525.18;;;707.13;;
51913;SDS011;37940;53.002;6.930;2023-03-31T05:36:17;1470.38;;;724.83;;
51913;SDS011;37940;53.002;6.930;2023-03-31T05:38:42;1498.45;;;708.17;;
51913;SDS011;37940;53.002;6.930;2023-03-31T05:41:08;1503.97;;;698.58;;
51913;SDS011;37940;53.002;6.930;2023-03-31T05:43:35;1509.32;;;692.72;;
51913;SDS011;37940;53.002;6.930;2023-03-31T05:46:02;1499.65;;;690.15;;
51913;SDS011;37940;53.002;6.930;2023-03-31T05:48:28;1528.70;;;678.05;;
51913;SDS011;37940;53.002;6.930;2023-03-31T05:50:57;1521.55;;;676.60;;
51913;SDS011;37940;53.002;6.930;2023-03-31T05:53:24;1535.35;;;684.38;;
51913;SDS011;37940;53.002;6.930;2023-03-31T05:55:55;1559.85;;;672.65;;
51913;SDS011;37940;53.002;6.930;2023-03-31T05:58:21;1513.10;;;678.88;;
51913;SDS011;37940;53.002;6.930;2023-03-31T06:00:47;1514.10;;;680.97;;
51913;SDS011;37940;53.002;6.930;2023-03-31T06:03:12;1499.47;;;683.35;;
51913;SDS011;37940;53.002;6.930;2023-03-31T06:05:38;1492.90;;;687.67;;
51913;SDS011;37940;53.002;6.930;2023-03-31T06:08:05;1510.55;;;680.83;;
51913;SDS011;37940;53.002;6.930;2023-03-31T06:10:31;1500.68;;;682.80;;
51913;SDS011;37940;53.002;6.930;2023-03-31T06:12:57;1560.32;;;686.55;;
51913;SDS011;37940;53.002;6.930;2023-03-31T06:15:23;1420.70;;;713.08;;
51913;SDS011;37940;53.002;6.930;2023-03-31T06:17:48;1348.88;;;724.42;;
51913;SDS011;37940;53.002;6.930;2023-03-31T06:20:14;1352.28;;;729.65;;
51913;SDS011;37940;53.002;6.930;2023-03-31T06:22:40;1374.63;;;726.78;;
51913;SDS011;37940;53.002;6.930;2023-03-31T06:25:06;1432.40;;;720.55;;
51913;SDS011;37940;53.002;6.930;2023-03-31T06:27:32;1428.55;;;719.53;;
51913;SDS011;37940;53.002;6.930;2023-03-31T06:29:57;1417.93;;;734.78;;
51913;SDS011;37940;53.002;6.930;2023-03-31T06:32:23;1301.72;;;762.05;;
51913;SDS011;37940;53.002;6.930;2023-03-31T06:34:49;1381.38;;;759.17;;
51913;SDS011;37940;53.002;6.930;2023-03-31T06:37:15;1332.85;;;757.78;;
51913;SDS011;37940;53.002;6.930;2023-03-31T06:39:41;1231.80;;;757.63;;
51913;SDS011;37940;53.002;6.930;2023-03-31T06:42:09;1192.85;;;759.08;;
51913;SDS011;37940;53.002;6.930;2023-03-31T06:44:35;1211.85;;;772.38;;
51913;SDS011;37940;53.002;6.930;2023-03-31T06:47:01;1221.13;;;765.88;;
51913;SDS011;37940;53.002;6.930;2023-03-31T06:49:26;1179.75;;;753.00;;
51913;SDS011;37940;53.002;6.930;2023-03-31T06:51:52;1202.00;;;752.17;;
51913;SDS011;37940;53.002;6.930;2023-03-31T06:54:18;1195.55;;;756.47;;
51913;SDS011;37940;53.002;6.930;2023-03-31T06:56:43;1173.63;;;723.58;;
51913;SDS011;37940;53.002;6.930;2023-03-31T06:59:09;1292.10;;;765.03;;
51913;SDS011;37940;53.002;6.930;2023-03-31T07:01:35;1175.70;;;738.78;;
51913;SDS011;37940;53.002;6.930;2023-03-31T07:04:06;1096.22;;;690.60;;
51913;SDS011;37940;53.002;6.930;2023-03-31T07:06:33;1054.85;;;663.03;;
51913;SDS011;37940;53.002;6.930;2023-03-31T07:08:58;983.50;;;560.03;;
51913;SDS011;37940;53.002;6.930;2023-03-31T07:11:24;1058.88;;;702.95;;
51913;SDS011;37940;53.002;6.930;2023-03-31T07:13:50;1094.10;;;730.67;;
51913;SDS011;37940;53.002;6.930;2023-03-31T07:16:16;1032.10;;;659.53;;
51913;SDS011;37940;53.002;6.930;2023-03-31T07:18:41;1153.00;;;788.10;;
51913;SDS011;37940;53.002;6.930;2023-03-31T07:21:07;1138.90;;;787.60;;
51913;SDS011;37940;53.002;6.930;2023-03-31T07:23:33;1169.50;;;800.78;;
51913;SDS011;37940;53.002;6.930;2023-03-31T07:25:59;1188.22;;;822.75;;
51913;SDS011;37940;53.002;6.930;2023-03-31T07:28:29;1144.00;;;783.67;;
51913;SDS011;37940;53.002;6.930;2023-03-31T07:30:55;1160.82;;;800.42;;
51913;SDS011;37940;53.002;6.930;2023-03-31T07:33:21;1109.70;;;755.50;;
51913;SDS011;37940;53.002;6.930;2023-03-31T07:35:46;1181.78;;;811.05;;
51913;SDS011;37940;53.002;6.930;2023-03-31T07:38:12;1086.65;;;745.42;;
51913;SDS011;37940;53.002;6.930;2023-03-31T07:40:38;1044.97;;;676.33;;
51913;SDS011;37940;53.002;6.930;2023-03-31T07:43:05;1134.18;;;779.30;;
51913;SDS011;37940;53.002;6.930;2023-03-31T07:45:31;1140.97;;;790.33;;
51913;SDS011;37940;53.002;6.930;2023-03-31T07:47:57;1282.80;;;819.38;;
51913;SDS011;37940;53.002;6.930;2023-03-31T07:50:23;1281.35;;;832.33;;
51913;SDS011;37940;53.002;6.930;2023-03-31T07:52:49;1241.28;;;826.60;;
51913;SDS011;37940;53.002;6.930;2023-03-31T07:55:16;1255.88;;;831.25;;
51913;SDS011;37940;53.002;6.930;2023-03-31T07:57:44;1263.13;;;827.67;;
51913;SDS011;37940;53.002;6.930;2023-03-31T08:00:11;1259.32;;;822.42;;
51913;SDS011;37940;53.002;6.930;2023-03-31T08:02:41;1287.80;;;831.47;;
51913;SDS011;37940;53.002;6.930;2023-03-31T08:05:07;1263.38;;;826.38;;
51913;SDS011;37940;53.002;6.930;2023-03-31T08:07:34;1208.70;;;817.97;;
51913;SDS011;37940;53.002;6.930;2023-03-31T08:10:03;1164.47;;;792.33;;
51913;SDS011;37940;53.002;6.930;2023-03-31T08:12:30;1181.55;;;788.55;;
51913;SDS011;37940;53.002;6.930;2023-03-31T08:14:55;1135.15;;;769.15;;
51913;SDS011;37940;53.002;6.930;2023-03-31T08:17:21;1053.00;;;689.15;;
51913;SDS011;37940;53.002;6.930;2023-03-31T08:19:47;1092.13;;;734.65;;
51913;SDS011;37940;53.002;6.930;2023-03-31T08:22:14;1159.18;;;783.55;;
51913;SDS011;37940;53.002;6.930;2023-03-31T08:24:40;1166.32;;;804.72;;
51913;SDS011;37940;53.002;6.930;2023-03-31T08:27:05;1161.95;;;811.15;;
51913;SDS011;37940;53.002;6.930;2023-03-31T08:29:31;1187.28;;;795.83;;
51913;SDS011;37940;53.002;6.930;2023-03-31T08:31:57;1240.93;;;840.17;;
51913;SDS011;37940;53.002;6.930;2023-03-31T08:34:23;1232.32;;;843.80;;
51913;SDS011;37940;53.002;6.930;2023-03-31T08:36:49;1210.63;;;822.70;;
51913;SDS011;37940;53.002;6.930;2023-03-31T08:39:14;1223.50;;;818.17;;
51913;SDS011;37940;53.002;6.930;2023-03-31T08:44:46;1149.88;;;779.65;;
51913;SDS011;37940;53.002;6.930;2023-03-31T08:47:23;1263.53;;;844.78;;
51913;SDS011;37940;53.002;6.930;2023-03-31T08:49:55;1285.10;;;843.90;;
51913;SDS011;37940;53.002;6.930;2023-03-31T08:52:33;1270.28;;;843.92;;
51913;SDS011;37940;53.002;6.930;2023-03-31T08:55:05;1273.43;;;842.45;;
51913;SDS011;37940;53.002;6.930;2023-03-31T08:57:42;1262.47;;;850.47;;
51913;SDS011;37940;53.002;6.930;2023-03-31T09:00:18;1232.30;;;839.17;;
51913;SDS011;37940;53.002;6.930;2023-03-31T09:02:54;1184.10;;;821.70;;
51913;SDS011;37940;53.002;6.930;2023-03-31T09:05:44;107.50;;;97.03;;
51913;SDS011;37940;53.002;6.930;2023-03-31T09:10:58;118.45;;;105.80;;
51913;SDS011;37940;53.002;6.930;2023-03-31T09:13:57;135.23;;;114.68;;
51913;SDS011;37940;53.002;6.930;2023-03-31T09:16:51;144.00;;;119.90;;
51913;SDS011;37940;53.002;6.930;2023-03-31T09:22:33;182.85;;;132.02;;
51913;SDS011;37940;53.002;6.930;2023-03-31T09:27:32;182.98;;;132.77;;
51913;SDS011;37940;53.002;6.930;2023-03-31T09:30:20;230.52;;;147.05;;
51913;SDS011;37940;53.002;6.930;2023-03-31T09:32:51;234.75;;;149.43;;
51913;SDS011;37940;53.002;6.930;2023-03-31T09:35:22;239.80;;;148.85;;
51913;SDS011;37940;53.002;6.930;2023-03-31T09:37:50;237.65;;;147.75;;
51913;SDS011;37940;53.002;6.930;2023-03-31T09:40:24;239.50;;;147.25;;
51913;SDS011;37940;53.002;6.930;2023-03-31T09:42:59;242.93;;;149.25;;
51913;SDS011;37940;53.002;6.930;2023-03-31T09:45:30;243.48;;;149.27;;
51913;SDS011;37940;53.002;6.930;2023-03-31T09:48:00;242.20;;;149.27;;
51913;SDS011;37940;53.002;6.930;2023-03-31T09:50:28;276.30;;;162.48;;
51913;SDS011;37940;53.002;6.930;2023-03-31T09:52:57;257.58;;;151.85;;
51913;SDS011;37940;53.002;6.930;2023-03-31T09:55:45;270.45;;;154.90;;
51913;SDS011;37940;53.002;6.930;2023-03-31T09:58:16;280.33;;;159.43;;
51913;SDS011;37940;53.002;6.930;2023-03-31T10:00:42;291.30;;;164.77;;
51913;SDS011;37940;53.002;6.930;2023-03-31T10:03:22;293.15;;;165.57;;
51913;SDS011;37940;53.002;6.930;2023-03-31T10:05:50;296.85;;;169.68;;
51913;SDS011;37940;53.002;6.930;2023-03-31T10:08:23;296.60;;;168.73;;
51913;SDS011;37940;53.002;6.930;2023-03-31T10:10:52;295.55;;;167.52;;
51913;SDS011;37940;53.002;6.930;2023-03-31T10:13:33;297.95;;;170.23;;
51913;SDS011;37940;53.002;6.930;2023-03-31T10:19:10;299.55;;;171.57;;
51913;SDS011;37940;53.002;6.930;2023-03-31T10:21:47;297.40;;;168.57;;
51913;SDS011;37940;53.002;6.930;2023-03-31T10:24:19;302.60;;;174.15;;
51913;SDS011;37940;53.002;6.930;2023-03-31T10:26:49;303.60;;;175.07;;
51913;SDS011;37940;53.002;6.930;2023-03-31T10:29:51;312.15;;;180.18;;
51913;SDS011;37940;53.002;6.930;2023-03-31T10:34:39;308.60;;;177.73;;
51913;SDS011;37940;53.002;6.930;2023-03-31T10:37:07;308.73;;;178.00;;
51913;SDS011;37940;53.002;6.930;2023-03-31T10:39:40;307.65;;;177.55;;
51913;SDS011;37940;53.002;6.930;2023-03-31T10:42:08;306.30;;;175.70;;
51913;SDS011;37940;53.002;6.930;2023-03-31T10:44:35;254.15;;;147.73;;
51913;SDS011;37940;53.002;6.930;2023-03-31T10:47:04;232.13;;;148.48;;
51913;SDS011;37940;53.002;6.930;2023-03-31T10:49:54;221.38;;;144.23;;
51913;SDS011;37940;53.002;6.930;2023-03-31T10:52:22;225.88;;;145.27;;
51913;SDS011;37940;53.002;6.930;2023-03-31T10:54:57;223.20;;;144.55;;
51913;SDS011;37940;53.002;6.930;2023-03-31T11:07:57;211.27;;;142.68;;
51913;SDS011;37940;53.002;6.930;2023-03-31T11:13:30;209.25;;;143.93;;
51913;SDS011;37940;53.002;6.930;2023-03-31T11:16:54;214.10;;;145.50;;
51913;SDS011;37940;53.002;6.930;2023-03-31T11:19:06;222.98;;;148.20;;
51913;SDS011;37940;53.002;6.930;2023-03-31T11:24:57;232.57;;;149.27;;
51913;SDS011;37940;53.002;6.930;2023-03-31T11:30:30;269.45;;;158.02;;
51913;SDS011;37940;53.002;6.930;2023-03-31T11:35:52;279.75;;;162.63;;
51913;SDS011;37940;53.002;6.930;2023-03-31T11:41:45;277.80;;;158.73;;
51913;SDS011;37940;53.002;6.930;2023-03-31T11:44:16;279.13;;;159.75;;
51913;SDS011;37940;53.002;6.930;2023-03-31T11:46:56;280.25;;;160.07;;
51913;SDS011;37940;53.002;6.930;2023-03-31T11:49:34;280.90;;;159.15;;
51913;SDS011;37940;53.002;6.930;2023-03-31T11:52:13;286.00;;;162.52;;
51913;SDS011;37940;53.002;6.930;2023-03-31T11:57:26;293.23;;;166.77;;
51913;SDS011;37940;53.002;6.930;2023-03-31T12:02:27;290.85;;;164.40;;
51913;SDS011;37940;53.002;6.930;2023-03-31T12:05:02;291.33;;;164.65;;
51913;SDS011;37940;53.002;6.930;2023-03-31T12:07:33;288.33;;;163.43;;
51913;SDS011;37940;53.002;6.930;2023-03-31T12:10:21;288.42;;;164.27;;
51913;SDS011;37940;53.002;6.930;2023-03-31T12:12:54;289.25;;;164.80;;
51913;SDS011;37940;53.002;6.930;2023-03-31T12:15:29;288.23;;;164.32;;
51913;SDS011;37940;53.002;6.930;2023-03-31T12:18:07;288.58;;;163.82;;
51913;SDS011;37940;53.002;6.930;2023-03-31T12:20:35;293.17;;;166.02;;
51913;SDS011;37940;53.002;6.930;2023-03-31T12:23:08;289.65;;;163.32;;
51913;SDS011;37940;53.002;6.930;2023-03-31T12:25:41;293.23;;;165.88;;
51913;SDS011;37940;53.002;6.930;2023-03-31T12:28:28;319.58;;;184.48;;
51913;SDS011;37940;53.002;6.930;2023-03-31T12:30:56;317.55;;;183.82;;
51913;SDS011;37940;53.002;6.930;2023-03-31T12:36:05;245.45;;;157.55;;
51913;SDS011;37940;53.002;6.930;2023-03-31T12:38:49;261.52;;;164.27;;
51913;SDS011;37940;53.002;6.930;2023-03-31T12:53:03;218.90;;;150.20;;
51913;SDS011;37940;53.002;6.930;2023-03-31T13:08:59;266.08;;;160.90;;
51913;SDS011;37940;53.002;6.930;2023-03-31T13:16:46;243.88;;;155.75;;
51913;SDS011;37940;53.002;6.930;2023-03-31T13:19:46;261.63;;;159.07;;
51913;SDS011;37940;53.002;6.930;2023-03-31T13:22:06;265.95;;;160.02;;
51913;SDS011;37940;53.002;6.930;2023-03-31T13:24:51;253.65;;;158.63;;
51913;SDS011;37940;53.002;6.930;2023-03-31T13:27:28;245.48;;;155.98;;
51913;SDS011;37940;53.002;6.930;2023-03-31T13:29:57;243.82;;;154.77;;
51913;SDS011;37940;53.002;6.930;2023-03-31T13:32:23;238.52;;;148.90;;
51913;SDS011;37940;53.002;6.930;2023-03-31T13:45:44;254.52;;;155.88;;
51913;SDS011;37940;53.002;6.930;2023-03-31T14:04:59;295.85;;;165.35;;
51913;SDS011;37940;53.002;6.930;2023-03-31T14:07:48;307.75;;;175.10;;
51913;SDS011;37940;53.002;6.930;2023-03-31T14:10:23;309.00;;;176.90;;
51913;SDS011;37940;53.002;6.930;2023-03-31T14:13:02;297.38;;;165.98;;
51913;SDS011;37940;53.002;6.930;2023-03-31T14:15:49;323.30;;;185.75;;
51913;SDS011;37940;53.002;6.930;2023-03-31T14:18:17;366.25;;;193.05;;
51913;SDS011;37940;53.002;6.930;2023-03-31T14:21:03;375.77;;;194.52;;
51913;SDS011;37940;53.002;6.930;2023-03-31T14:36:59;393.90;;;193.13;;
51913;SDS011;37940;53.002;6.930;2023-03-31T14:39:30;406.63;;;193.48;;
51913;SDS011;37940;53.002;6.930;2023-03-31T14:42:02;413.23;;;193.60;;
51913;SDS011;37940;53.002;6.930;2023-03-31T14:44:30;408.40;;;192.48;;
51913;SDS011;37940;53.002;6.930;2023-03-31T14:46:58;423.45;;;194.07;;
51913;SDS011;37940;53.002;6.930;2023-03-31T14:49:25;428.30;;;193.15;;
51913;SDS011;37940;53.002;6.930;2023-03-31T14:52:13;423.30;;;194.10;;
51913;SDS011;37940;53.002;6.930;2023-03-31T14:54:45;425.55;;;192.55;;
51913;SDS011;37940;53.002;6.930;2023-03-31T14:57:18;436.60;;;192.20;;
51913;SDS011;37940;53.002;6.930;2023-03-31T14:59:47;429.05;;;193.07;;
51913;SDS011;37940;53.002;6.930;2023-03-31T15:02:18;431.02;;;192.52;;
51913;SDS011;37940;53.002;6.930;2023-03-31T15:04:55;427.60;;;192.65;;
51913;SDS011;37940;53.002;6.930;2023-03-31T15:07:22;431.55;;;193.07;;
51913;SDS011;37940;53.002;6.930;2023-03-31T15:09:48;427.88;;;193.68;;
51913;SDS011;37940;53.002;6.930;2023-03-31T15:12:16;423.50;;;191.57;;
51913;SDS011;37940;53.002;6.930;2023-03-31T15:14:45;416.15;;;192.02;;
51913;SDS011;37940;53.002;6.930;2023-03-31T15:17:21;429.55;;;193.02;;
51913;SDS011;37940;53.002;6.930;2023-03-31T15:19:57;420.20;;;191.88;;
51913;SDS011;37940;53.002;6.930;2023-03-31T15:22:25;413.55;;;191.90;;
51913;SDS011;37940;53.002;6.930;2023-03-31T15:24:53;396.92;;;191.25;;
51913;SDS011;37940;53.002;6.930;2023-03-31T15:27:39;410.42;;;193.00;;
51913;SDS011;37940;53.002;6.930;2023-03-31T15:30:27;400.63;;;193.05;;
51913;SDS011;37940;53.002;6.930;2023-03-31T15:33:25;397.60;;;194.27;;
51913;SDS011;37940;53.002;6.930;2023-03-31T15:35:56;389.58;;;193.88;;
51913;SDS011;37940;53.002;6.930;2023-03-31T15:38:23;395.98;;;192.85;;
51913;SDS011;37940;53.002;6.930;2023-03-31T15:40:54;409.73;;;193.73;;
51913;SDS011;37940;53.002;6.930;2023-03-31T15:43:31;412.48;;;194.55;;
51913;SDS011;37940;53.002;6.930;2023-03-31T15:46:10;408.92;;;193.23;;
51913;SDS011;37940;53.002;6.930;2023-03-31T15:48:52;402.05;;;193.07;;
51913;SDS011;37940;53.002;6.930;2023-03-31T15:51:29;404.83;;;193.30;;
51913;SDS011;37940;53.002;6.930;2023-03-31T15:53:59;409.85;;;193.48;;
51913;SDS011;37940;53.002;6.930;2023-03-31T15:56:43;405.95;;;193.48;;
51913;SDS011;37940;53.002;6.930;2023-03-31T16:02:12;390.42;;;193.52;;
51913;SDS011;37940;53.002;6.930;2023-03-31T16:05:00;396.60;;;194.52;;
51913;SDS011;37940;53.002;6.930;2023-03-31T16:07:28;415.00;;;192.50;;
51913;SDS011;37940;53.002;6.930;2023-03-31T16:10:04;397.67;;;194.50;;
51913;SDS011;37940;53.002;6.930;2023-03-31T16:12:35;371.90;;;192.30;;
51913;SDS011;37940;53.002;6.930;2023-03-31T16:15:15;395.75;;;193.73;;
51913;SDS011;37940;53.002;6.930;2023-03-31T16:17:53;397.67;;;192.98;;
51913;SDS011;37940;53.002;6.930;2023-03-31T16:20:30;335.27;;;189.55;;
51913;SDS011;37940;53.002;6.930;2023-03-31T16:23:01;324.02;;;189.80;;
51913;SDS011;37940;53.002;6.930;2023-03-31T16:25:41;351.02;;;191.73;;
51913;SDS011;37940;53.002;6.930;2023-03-31T16:28:07;373.20;;;193.23;;
51913;SDS011;37940;53.002;6.930;2023-03-31T16:30:41;375.58;;;192.88;;
51913;SDS011;37940;53.002;6.930;2023-03-31T16:33:12;382.77;;;193.93;;
51913;SDS011;37940;53.002;6.930;2023-03-31T16:35:40;382.25;;;195.75;;
51913;SDS011;37940;53.002;6.930;2023-03-31T16:38:08;385.48;;;191.65;;
51913;SDS011;37940;53.002;6.930;2023-03-31T16:40:37;365.17;;;191.93;;
51913;SDS011;37940;53.002;6.930;2023-03-31T16:45:51;306.80;;;177.68;;
51913;SDS011;37940;53.002;6.930;2023-03-31T16:48:25;301.70;;;174.95;;
51913;SDS011;37940;53.002;6.930;2023-03-31T16:50:53;300.52;;;173.05;;
51913;SDS011;37940;53.002;6.930;2023-03-31T16:53:22;302.73;;;175.88;;
51913;SDS011;37940;53.002;6.930;2023-03-31T16:55:51;300.63;;;173.95;;
51913;SDS011;37940;53.002;6.930;2023-03-31T16:58:18;275.85;;;160.85;;
51913;SDS011;37940;53.002;6.930;2023-03-31T17:00:44;261.63;;;157.93;;
51913;SDS011;37940;53.002;6.930;2023-03-31T17:03:10;265.48;;;158.30;;
51913;SDS011;37940;53.002;6.930;2023-03-31T17:05:38;250.90;;;154.13;;